PWSweather.com
Personal Weather Stations
Station Observations
ZL1DX1M
Mt. Roskill, Auckland, AK 1041

Mt. RoskillAuckland, AK 1041

Lat: -36.9, Lon: 174.74

Elevation: 54

Station Type:

http://www.sanctuaryweather.co.nz

Latest ConditionsUpdated 4:15:19 PM GMT+12 Thursday, Oct 2, 2014
Currently Today's Max Today's Min Today's Average
Temperature 57.7°F14.3°C 64.7°F18.2°C 51.1°F10.6°C 56.5°F13.6°C
Dew Point 55.4°F13.0°C 55.5°F13.1°C 47.4°F8.6°C 49.9°F9.9°C
Winds 1.7 mph NW2.7 kmh NW 12.4 mph WSW20.0 kmh WSW - 3.0 mph 4.8 kmh
Wind Gusts 6.0 mph9.7 kmh 18.0 mph29.0 kmh - -
Humidity 92% 92% 61% 79%
Pressure 29.61 in1002.7 mb 29.82 in1009.8 mb 29.61 in1002.7 mb -
Precipitation - 0.06 in1.5 mm - -
Hour Temp Dew Point Humidity Winds Wind Gusts Pressure Precip Precip Rate Daily Precip Total
04:15 PM 57.7°F14.3°C 55.4°F13.0°C 92% 1.7 mph NW2.7 kmh NW 6.0 mph9.7 kmh 29.61 in1002.7 mb 0.00 in0.0 mm 0.00 in/hr0.0 mm/hr 0.06 in1.5 mm
04:00 PM 57.9°F14.4°C 55.5°F13.1°C 92% 3.3 mph W5.3 kmh W 7.0 mph11.3 kmh 29.62 in1003.0 mb 0.01 in0.3 mm 0.01 in/hr0.3 mm/hr 0.06 in1.5 mm
03:45 PM 57.8°F14.3°C 55.2°F12.9°C 91% 3.9 mph W6.3 kmh W 6.0 mph9.7 kmh 29.62 in1003.0 mb 0.02 in0.5 mm 0.08 in/hr2.0 mm/hr 0.05 in1.3 mm
03:30 PM 58.2°F14.6°C 55.0°F12.8°C 89% 1.6 mph WSW2.6 kmh WSW 3.0 mph4.8 kmh 29.63 in1003.4 mb 0.02 in0.5 mm 0.08 in/hr2.0 mm/hr 0.03 in0.8 mm
03:15 PM 58.8°F14.9°C 54.6°F12.6°C 86% 2.6 mph W4.2 kmh W 13.0 mph20.9 kmh 29.64 in1003.7 mb 0.02 in0.5 mm 0.08 in/hr2.0 mm/hr 0.02 in0.5 mm
03:00 PM 59.4°F15.2°C 54.3°F12.4°C 83% 2.9 mph W4.7 kmh W 5.0 mph8.0 kmh 29.64 in1003.7 mb 0.00 in0.0 mm 0.00 in/hr0.0 mm/hr 0.00 in0.0 mm
02:45 PM 59.1°F15.1°C 53.6°F12.0°C 82% 2.4 mph W3.9 kmh W 4.0 mph6.4 kmh 29.65 in1004.1 mb 0.00 in0.0 mm 0.00 in/hr0.0 mm/hr 0.00 in0.0 mm
02:30 PM 59.7°F15.4°C 53.5°F11.9°C 80% 3.8 mph SW6.1 kmh SW 7.0 mph11.3 kmh 29.66 in1004.4 mb 0.00 in0.0 mm 0.00 in/hr0.0 mm/hr 0.00 in0.0 mm
02:15 PM 62.0°F16.7°C 52.4°F11.3°C 71% 7.0 mph WSW11.3 kmh WSW 15.0 mph24.1 kmh 29.66 in1004.4 mb 0.00 in0.0 mm 0.00 in/hr0.0 mm/hr 0.00 in0.0 mm
02:00 PM 63.5°F17.5°C 51.9°F11.1°C 66% 10.9 mph W17.5 kmh W 17.0 mph27.4 kmh 29.67 in1004.7 mb 0.00 in0.0 mm 0.00 in/hr0.0 mm/hr 0.00 in0.0 mm
01:45 PM 63.6°F17.6°C 51.2°F10.7°C 64% 11.9 mph WSW19.2 kmh WSW 15.0 mph24.1 kmh 29.68 in1005.1 mb 0.00 in0.0 mm 0.00 in/hr0.0 mm/hr 0.00 in0.0 mm
01:30 PM 63.9°F17.7°C 50.6°F10.3°C 62% 12.4 mph WSW20.0 kmh WSW 18.0 mph29.0 kmh 29.68 in1005.1 mb 0.00 in0.0 mm 0.00 in/hr0.0 mm/hr 0.00 in0.0 mm
01:15 PM 64.7°F18.2°C 50.9°F10.5°C 61% 10.5 mph WSW16.9 kmh WSW 18.0 mph29.0 kmh 29.68 in1005.1 mb 0.00 in0.0 mm 0.00 in/hr0.0 mm/hr 0.00 in0.0 mm
01:00 PM 64.1°F17.8°C 50.8°F10.4°C 62% 8.0 mph W12.9 kmh W 12.0 mph19.3 kmh 29.69 in1005.4 mb 0.00 in0.0 mm 0.00 in/hr0.0 mm/hr 0.00 in0.0 mm
12:45 PM 64.0°F17.8°C 50.7°F10.4°C 62% 6.5 mph SW10.5 kmh SW 8.0 mph12.9 kmh 29.70 in1005.8 mb 0.00 in0.0 mm 0.00 in/hr0.0 mm/hr 0.00 in0.0 mm
11:45 AM 62.1°F16.7°C 50.6°F10.3°C 66% 8.6 mph N13.8 kmh N 12.0 mph19.3 kmh 29.73 in1006.8 mb 0.00 in0.0 mm 0.00 in/hr0.0 mm/hr 0.00 in0.0 mm
11:30 AM 62.1°F16.7°C 51.0°F10.6°C 67% 7.9 mph WSW12.7 kmh WSW 16.0 mph25.7 kmh 29.74 in1007.1 mb 0.00 in0.0 mm 0.00 in/hr0.0 mm/hr 0.00 in0.0 mm
11:15 AM 61.4°F16.3°C 49.9°F9.9°C 66% 9.2 mph NW14.8 kmh NW 17.0 mph27.4 kmh 29.75 in1007.5 mb 0.00 in0.0 mm 0.00 in/hr0.0 mm/hr 0.00 in0.0 mm
11:00 AM 60.8°F16.0°C 50.6°F10.3°C 69% 5.0 mph WSW8.0 kmh WSW 13.0 mph20.9 kmh 29.75 in1007.5 mb 0.00 in0.0 mm 0.00 in/hr0.0 mm/hr 0.00 in0.0 mm
10:45 AM 62.0°F16.7°C 50.1°F10.1°C 65% 8.4 mph SW13.5 kmh SW 16.0 mph25.7 kmh 29.76 in1007.8 mb 0.00 in0.0 mm 0.00 in/hr0.0 mm/hr 0.00 in0.0 mm
10:30 AM 61.5°F16.4°C 50.0°F10.0°C 66% 6.0 mph WSW9.7 kmh WSW 13.0 mph20.9 kmh 29.76 in1007.8 mb 0.00 in0.0 mm 0.00 in/hr0.0 mm/hr 0.00 in0.0 mm
10:15 AM 61.8°F16.6°C 49.9°F9.9°C 65% 5.2 mph W8.4 kmh W 13.0 mph20.9 kmh 29.77 in1008.1 mb 0.00 in0.0 mm 0.00 in/hr0.0 mm/hr 0.00 in0.0 mm
10:00 AM 61.2°F16.2°C 49.3°F9.6°C 65% 5.2 mph WSW8.4 kmh WSW 13.0 mph20.9 kmh 29.77 in1008.1 mb 0.00 in0.0 mm 0.00 in/hr0.0 mm/hr 0.00 in0.0 mm
09:45 AM 60.0°F15.6°C 49.4°F9.7°C 68% 4.2 mph WSW6.8 kmh WSW 10.0 mph16.1 kmh 29.78 in1008.5 mb 0.00 in0.0 mm 0.00 in/hr0.0 mm/hr 0.00 in0.0 mm
09:30 AM 58.4°F14.7°C 49.0°F9.4°C 71% 4.0 mph WSW6.4 kmh WSW 10.0 mph16.1 kmh 29.78 in1008.5 mb 0.00 in0.0 mm 0.00 in/hr0.0 mm/hr 0.00 in0.0 mm
09:15 AM 58.2°F14.6°C 48.1°F8.9°C 69% 6.8 mph WSW10.9 kmh WSW 11.0 mph17.7 kmh 29.78 in1008.5 mb 0.00 in0.0 mm 0.00 in/hr0.0 mm/hr 0.00 in0.0 mm
09:00 AM 57.9°F14.4°C 47.4°F8.6°C 68% 3.8 mph SW6.1 kmh SW 6.0 mph9.7 kmh 29.78 in1008.5 mb 0.00 in0.0 mm 0.00 in/hr0.0 mm/hr 0.00 in0.0 mm
08:45 AM 57.5°F14.2°C 47.4°F8.6°C 69% 3.5 mph WSW5.6 kmh WSW 8.0 mph12.9 kmh 29.78 in1008.5 mb 0.00 in0.0 mm 0.00 in/hr0.0 mm/hr 0.00 in0.0 mm
08:30 AM 56.9°F13.8°C 47.6°F8.7°C 71% 2.4 mph W3.9 kmh W 6.0 mph9.7 kmh 29.79 in1008.8 mb 0.00 in0.0 mm 0.00 in/hr0.0 mm/hr 0.00 in0.0 mm
08:15 AM 56.9°F13.8°C 48.0°F8.9°C 72% 4.3 mph W6.9 kmh W 7.0 mph11.3 kmh 29.79 in1008.8 mb 0.00 in0.0 mm 0.00 in/hr0.0 mm/hr 0.00 in0.0 mm
08:00 AM 56.7°F13.7°C 48.1°F8.9°C 73% 3.0 mph SW4.8 kmh SW 6.0 mph9.7 kmh 29.79 in1008.8 mb 0.00 in0.0 mm 0.00 in/hr0.0 mm/hr 0.00 in0.0 mm
07:45 AM 56.3°F13.5°C 48.1°F8.9°C 74% 2.2 mph WSW3.5 kmh WSW 7.0 mph11.3 kmh 29.78 in1008.5 mb 0.00 in0.0 mm 0.00 in/hr0.0 mm/hr 0.00 in0.0 mm
07:30 AM 55.7°F13.2°C 48.2°F9.0°C 76% 1.1 mph SW1.8 kmh SW 3.0 mph4.8 kmh 29.78 in1008.5 mb 0.00 in0.0 mm 0.00 in/hr0.0 mm/hr 0.00 in0.0 mm
07:15 AM 54.7°F12.6°C 49.6°F9.8°C 83% 2.9 mph WSW4.7 kmh WSW 6.0 mph9.7 kmh 29.79 in1008.8 mb 0.00 in0.0 mm 0.00 in/hr0.0 mm/hr 0.00 in0.0 mm
07:00 AM 53.8°F12.1°C 49.7°F9.8°C 86% Calm Calm -- 29.79 in1008.8 mb 0.00 in0.0 mm 0.00 in/hr0.0 mm/hr 0.00 in0.0 mm
06:45 AM 53.0°F11.7°C 48.9°F9.4°C 86% Calm Calm -- 29.79 in1008.8 mb 0.00 in0.0 mm 0.00 in/hr0.0 mm/hr 0.00 in0.0 mm
06:30 AM 52.4°F11.3°C 48.7°F9.3°C 87% Calm Calm -- 29.79 in1008.8 mb 0.00 in0.0 mm 0.00 in/hr0.0 mm/hr 0.00 in0.0 mm
06:15 AM 51.8°F11.0°C 48.1°F8.9°C 87% Calm Calm -- 29.79 in1008.8 mb 0.00 in0.0 mm 0.00 in/hr0.0 mm/hr 0.00 in0.0 mm
06:00 AM 51.9°F11.1°C 47.9°F8.8°C 86% Calm Calm -- 29.78 in1008.5 mb 0.00 in0.0 mm 0.00 in/hr0.0 mm/hr 0.00 in0.0 mm
05:45 AM 52.6°F11.4°C 48.2°F9.0°C 85% Calm Calm -- 29.79 in1008.8 mb 0.00 in0.0 mm 0.00 in/hr0.0 mm/hr 0.00 in0.0 mm
05:30 AM 53.0°F11.7°C 48.9°F9.4°C 86% 0.3 mph SW0.5 kmh SW 1.0 mph1.6 kmh 29.79 in1008.8 mb 0.00 in0.0 mm 0.00 in/hr0.0 mm/hr 0.00 in0.0 mm
05:15 AM 52.6°F11.4°C 49.1°F9.5°C 88% 0.4 mph SW0.6 kmh SW 2.0 mph3.2 kmh 29.79 in1008.8 mb 0.00 in0.0 mm 0.00 in/hr0.0 mm/hr 0.00 in0.0 mm
05:00 AM 51.9°F11.1°C 48.8°F9.3°C 89% Calm Calm -- 29.79 in1008.8 mb 0.00 in0.0 mm 0.00 in/hr0.0 mm/hr 0.00 in0.0 mm
04:45 AM 51.4°F10.8°C 48.3°F9.1°C 89% Calm Calm -- 29.79 in1008.8 mb 0.00 in0.0 mm 0.00 in/hr0.0 mm/hr 0.00 in0.0 mm
04:30 AM 51.6°F10.9°C 48.8°F9.3°C 90% Calm Calm -- 29.79 in1008.8 mb 0.00 in0.0 mm 0.00 in/hr0.0 mm/hr 0.00 in0.0 mm
04:15 AM 51.1°F10.6°C 48.0°F8.9°C 89% Calm Calm -- 29.78 in1008.5 mb 0.00 in0.0 mm 0.00 in/hr0.0 mm/hr 0.00 in0.0 mm
04:00 AM 51.4°F10.8°C 48.0°F8.9°C 88% Calm Calm -- 29.78 in1008.5 mb 0.00 in0.0 mm 0.00 in/hr0.0 mm/hr 0.00 in0.0 mm
03:45 AM 52.1°F11.2°C 48.3°F9.1°C 87% Calm Calm -- 29.78 in1008.5 mb 0.00 in0.0 mm 0.00 in/hr0.0 mm/hr 0.00 in0.0 mm
03:30 AM 52.9°F11.6°C 48.8°F9.3°C 86% Calm Calm -- 29.78 in1008.5 mb 0.00 in0.0 mm 0.00 in/hr0.0 mm/hr 0.00 in0.0 mm
03:15 AM 53.6°F12.0°C 49.5°F9.7°C 86% Calm Calm -- 29.79 in1008.8 mb 0.00 in0.0 mm 0.00 in/hr0.0 mm/hr 0.00 in0.0 mm
03:00 AM 53.8°F12.1°C 49.7°F9.8°C 86% 0.4 mph WSW0.6 kmh WSW 1.0 mph1.6 kmh 29.78 in1008.5 mb 0.00 in0.0 mm 0.00 in/hr0.0 mm/hr 0.00 in0.0 mm
02:45 AM 53.6°F12.0°C 49.5°F9.7°C 86% 0.3 mph SW0.5 kmh SW 1.0 mph1.6 kmh 29.79 in1008.8 mb 0.00 in0.0 mm 0.00 in/hr0.0 mm/hr 0.00 in0.0 mm
02:30 AM 53.7°F12.1°C 49.6°F9.8°C 86% 0.1 mph WSW0.2 kmh WSW 1.0 mph1.6 kmh 29.79 in1008.8 mb 0.00 in0.0 mm 0.00 in/hr0.0 mm/hr 0.00 in0.0 mm
02:15 AM 52.7°F11.5°C 49.6°F9.8°C 89% 0.7 mph WSW1.1 kmh WSW 1.0 mph1.6 kmh 29.80 in1009.1 mb 0.00 in0.0 mm 0.00 in/hr0.0 mm/hr 0.00 in0.0 mm
02:00 AM 51.6°F10.9°C 48.5°F9.2°C 89% 0.2 mph SW0.3 kmh SW -- 29.80 in1009.1 mb 0.00 in0.0 mm 0.00 in/hr0.0 mm/hr 0.00 in0.0 mm
01:45 AM 51.9°F11.1°C 48.4°F9.1°C 88% Calm Calm -- 29.80 in1009.1 mb 0.00 in0.0 mm 0.00 in/hr0.0 mm/hr 0.00 in0.0 mm
01:30 AM 52.5°F11.4°C 48.7°F9.3°C 87% Calm Calm -- 29.81 in1009.5 mb 0.00 in0.0 mm 0.00 in/hr0.0 mm/hr 0.00 in0.0 mm
01:15 AM 52.7°F11.5°C 48.9°F9.4°C 87% 0.2 mph SW0.3 kmh SW 1.0 mph1.6 kmh 29.81 in1009.5 mb 0.00 in0.0 mm 0.00 in/hr0.0 mm/hr 0.00 in0.0 mm
01:00 AM 53.1°F11.7°C 49.3°F9.6°C 87% Calm Calm -- 29.81 in1009.5 mb 0.00 in0.0 mm 0.00 in/hr0.0 mm/hr 0.00 in0.0 mm
12:45 AM 53.2°F11.8°C 49.4°F9.7°C 87% 1.4 mph SW2.3 kmh SW 4.0 mph6.4 kmh 29.82 in1009.8 mb 0.00 in0.0 mm 0.00 in/hr0.0 mm/hr 0.00 in0.0 mm
12:30 AM 53.4°F11.9°C 49.6°F9.8°C 87% 1.4 mph SW2.3 kmh SW 3.0 mph4.8 kmh 29.82 in1009.8 mb 0.00 in0.0 mm 0.00 in/hr0.0 mm/hr 0.00 in0.0 mm
12:15 AM 53.5°F11.9°C 49.7°F9.8°C 87% 1.6 mph WSW2.6 kmh WSW 5.0 mph8.0 kmh 29.82 in1009.8 mb 0.00 in0.0 mm 0.00 in/hr0.0 mm/hr 0.00 in0.0 mm
12:00 AM 53.2°F11.8°C 49.7°F9.8°C 88% 0.3 mph SW0.5 kmh SW 2.0 mph3.2 kmh 29.82 in1009.8 mb 0.00 in0.0 mm 0.00 in/hr0.0 mm/hr 0.00 in0.0 mm